createdAt,value
2022-11-29T00:01:39.870Z,79.91
2022-11-29T00:04:07.502Z,79.96
2022-11-29T00:06:36.000Z,80.01
2022-11-29T00:09:08.364Z,80.38
2022-11-29T00:11:57.026Z,79.83
2022-11-29T00:14:27.519Z,78.48
2022-11-29T00:16:59.461Z,78.44
2022-11-29T00:19:26.516Z,78.55
2022-11-29T00:21:53.858Z,78.38
2022-11-29T00:24:21.209Z,78.29
2022-11-29T00:26:48.597Z,77.92
2022-11-29T00:29:15.999Z,78.31
2022-11-29T00:31:44.012Z,78.03
2022-11-29T00:34:12.457Z,78.81
2022-11-29T00:36:40.859Z,78.75
2022-11-29T00:39:11.619Z,78.88
2022-11-29T00:41:39.200Z,80.02
2022-11-29T00:44:06.371Z,79.11
2022-11-29T00:46:33.921Z,79.30
2022-11-29T00:49:01.172Z,80.00
2022-11-29T00:51:28.904Z,79.78
2022-11-29T00:53:55.879Z,79.19
2022-11-29T00:56:23.019Z,79.37
2022-11-29T00:58:50.926Z,79.34
2022-11-29T01:01:18.236Z,78.30
2022-11-29T01:03:45.805Z,78.73
2022-11-29T01:06:15.621Z,78.93
2022-11-29T01:08:43.346Z,79.47
2022-11-29T01:11:24.742Z,78.50
2022-11-29T01:13:57.705Z,77.76
2022-11-29T01:16:25.864Z,78.05
2022-11-29T01:18:52.941Z,77.79
2022-11-29T01:21:22.592Z,77.71
2022-11-29T01:23:52.689Z,76.98
2022-11-29T01:26:26.342Z,77.72
2022-11-29T01:28:55.388Z,78.32
2022-11-29T01:31:32.869Z,78.81
2022-11-29T01:34:02.938Z,78.04
2022-11-29T01:36:30.811Z,77.84
2022-11-29T01:39:01.624Z,77.58
2022-11-29T01:41:32.795Z,77.26
2022-11-29T01:44:04.748Z,77.72
2022-11-29T01:46:38.860Z,76.98
2022-11-29T01:49:20.202Z,77.09
2022-11-29T01:52:03.790Z,77.47
2022-11-29T01:54:35.090Z,77.86
2022-11-29T01:57:07.466Z,77.28
2022-11-29T01:59:37.228Z,77.30
2022-11-29T02:02:14.619Z,77.20
2022-11-29T02:04:45.132Z,77.90
2022-11-29T02:07:12.808Z,77.93
2022-11-29T02:09:40.112Z,77.41
2022-11-29T02:12:51.793Z,77.63
2022-11-29T02:16:03.800Z,78.86
2022-11-29T02:19:00.276Z,78.02
2022-11-29T02:21:54.616Z,77.80
2022-11-29T02:24:54.796Z,76.53
2022-11-29T02:28:04.487Z,77.24
2022-11-29T02:30:52.978Z,77.56
2022-11-29T02:33:47.962Z,77.68
2022-11-29T02:36:25.271Z,77.05
2022-11-29T02:39:32.417Z,77.73
2022-11-29T02:41:59.416Z,77.37
2022-11-29T02:44:53.900Z,77.19
2022-11-29T02:47:25.833Z,78.40
2022-11-29T02:50:55.382Z,78.90
2022-11-29T02:53:37.001Z,78.71
2022-11-29T02:56:28.853Z,78.26
2022-11-29T02:59:39.253Z,78.05
2022-11-29T03:02:35.152Z,78.05
2022-11-29T03:05:23.835Z,77.64
2022-11-29T03:08:13.265Z,77.15
2022-11-29T03:11:07.005Z,77.82
2022-11-29T03:14:07.720Z,76.50
2022-11-29T03:16:46.136Z,76.86
2022-11-29T03:19:29.378Z,77.78
2022-11-29T03:22:20.780Z,76.88
2022-11-29T03:25:02.908Z,77.50
2022-11-29T03:27:53.045Z,77.86
2022-11-29T03:30:21.868Z,77.69
2022-11-29T03:33:16.834Z,77.13
2022-11-29T03:36:12.918Z,77.81
2022-11-29T03:38:46.017Z,77.38
2022-11-29T03:42:14.460Z,77.68
2022-11-29T03:44:52.577Z,78.69
2022-11-29T03:47:35.019Z,77.36
2022-11-29T03:50:11.329Z,78.64
2022-11-29T03:53:01.680Z,76.78
2022-11-29T03:56:04.082Z,76.64
2022-11-29T03:58:50.347Z,76.01
2022-11-29T04:02:07.018Z,77.69
2022-11-29T04:05:28.247Z,76.57
2022-11-29T04:08:38.736Z,77.33
2022-11-29T04:11:54.615Z,77.40
2022-11-29T04:14:51.483Z,77.83
2022-11-29T04:17:56.512Z,76.61
2022-11-29T04:21:15.555Z,77.23
2022-11-29T04:24:06.839Z,77.24
2022-11-29T04:27:17.762Z,77.42
2022-11-29T04:29:50.505Z,78.66
2022-11-29T04:32:34.666Z,77.97
2022-11-29T04:35:38.493Z,77.47
2022-11-29T04:38:40.906Z,78.71
2022-11-29T04:41:34.923Z,78.94
2022-11-29T04:44:31.859Z,78.98
2022-11-29T04:47:39.516Z,77.96
2022-11-29T04:50:27.569Z,77.50
2022-11-29T04:53:33.867Z,78.44
2022-11-29T04:56:45.126Z,77.71
2022-11-29T04:59:27.300Z,78.55
2022-11-29T05:02:22.341Z,78.93
2022-11-29T05:05:32.205Z,77.46
2022-11-29T05:08:33.005Z,77.52
2022-11-29T05:11:35.107Z,77.70
2022-11-29T05:14:17.760Z,80.34
2022-11-29T05:17:40.255Z,78.30
2022-11-29T05:20:19.150Z,79.05
2022-11-29T05:23:22.848Z,78.56
2022-11-29T05:26:22.720Z,77.52
2022-11-29T05:28:57.618Z,77.11
2022-11-29T05:31:49.376Z,76.72
2022-11-29T05:34:35.173Z,76.54
2022-11-29T05:37:47.208Z,77.69
2022-11-29T05:40:43.615Z,77.96
2022-11-29T05:43:51.281Z,78.13
2022-11-29T05:46:34.683Z,78.28
2022-11-29T05:49:21.865Z,78.28
2022-11-29T05:52:25.050Z,79.37
2022-11-29T05:55:16.574Z,78.29
2022-11-29T05:58:10.568Z,78.47
2022-11-29T06:00:51.885Z,78.44
2022-11-29T06:03:43.709Z,77.89
2022-11-29T06:06:47.090Z,76.79
2022-11-29T06:10:00.507Z,77.92
2022-11-29T06:12:31.892Z,80.09
2022-11-29T06:15:56.980Z,79.08
2022-11-29T06:19:25.878Z,77.63
2022-11-29T06:22:05.785Z,79.54
2022-11-29T06:24:53.404Z,79.05
2022-11-29T06:27:39.126Z,79.52
2022-11-29T06:30:13.949Z,79.43
2022-11-29T06:33:21.626Z,80.05
2022-11-29T06:36:19.629Z,80.04
2022-11-29T06:38:47.320Z,82.47
2022-11-29T06:41:21.995Z,82.76
2022-11-29T06:43:50.271Z,82.13
2022-11-29T06:46:31.249Z,81.95
2022-11-29T06:49:28.196Z,81.06
2022-11-29T06:52:29.027Z,81.25
2022-11-29T06:55:17.135Z,80.50
2022-11-29T06:58:43.131Z,79.20
2022-11-29T07:01:20.501Z,78.84
2022-11-29T07:04:29.566Z,80.73
2022-11-29T07:06:57.224Z,79.73
2022-11-29T07:09:34.589Z,79.07
2022-11-29T07:12:02.130Z,79.79
2022-11-29T07:14:29.448Z,78.75
2022-11-29T07:17:15.408Z,78.14
2022-11-29T07:19:54.127Z,79.94
2022-11-29T07:22:55.143Z,80.46
2022-11-29T07:25:51.236Z,80.09
2022-11-29T07:28:53.779Z,79.02
2022-11-29T07:31:42.334Z,80.43
2022-11-29T07:34:40.184Z,80.53
2022-11-29T07:37:48.218Z,80.68
2022-11-29T07:40:25.481Z,81.53
2022-11-29T07:43:22.741Z,80.03
2022-11-29T07:45:51.354Z,80.28
2022-11-29T07:48:19.304Z,78.69
2022-11-29T07:50:46.840Z,77.81
2022-11-29T07:53:19.147Z,79.46
2022-11-29T07:55:47.389Z,79.98
2022-11-29T07:58:16.775Z,80.25
2022-11-29T08:00:44.792Z,79.37
2022-11-29T08:03:12.174Z,79.64
2022-11-29T08:05:39.962Z,79.64
2022-11-29T08:08:07.488Z,78.90
2022-11-29T08:10:35.695Z,78.74
2022-11-29T08:13:02.729Z,78.63
2022-11-29T08:15:30.003Z,79.32
2022-11-29T08:18:19.232Z,80.02
2022-11-29T08:20:46.528Z,80.33
2022-11-29T08:23:15.604Z,80.30
2022-11-29T08:25:42.921Z,79.82
2022-11-29T08:28:09.968Z,79.36
2022-11-29T08:30:37.879Z,78.36
2022-11-29T08:33:05.391Z,78.67
2022-11-29T08:35:34.494Z,77.94
2022-11-29T08:38:01.514Z,78.67
2022-11-29T08:40:28.589Z,78.58
2022-11-29T08:42:58.517Z,77.65
2022-11-29T08:45:25.629Z,78.00
2022-11-29T08:47:52.719Z,77.23
2022-11-29T08:50:19.836Z,78.37
2022-11-29T08:53:07.851Z,76.92
2022-11-29T08:55:42.673Z,77.80
2022-11-29T08:58:14.067Z,77.43
2022-11-29T09:00:46.011Z,77.08
2022-11-29T09:03:32.177Z,76.52
2022-11-29T09:06:07.674Z,76.18
2022-11-29T09:08:39.368Z,76.79
2022-11-29T09:11:22.125Z,75.08
2022-11-29T09:13:53.921Z,74.96
2022-11-29T09:16:25.435Z,75.46
2022-11-29T09:18:54.728Z,75.27
2022-11-29T09:21:24.551Z,74.61
2022-11-29T09:23:58.806Z,75.39
2022-11-29T09:26:35.617Z,75.48
2022-11-29T09:29:06.522Z,75.67
2022-11-29T09:31:34.958Z,77.93
2022-11-29T09:34:02.049Z,77.64
2022-11-29T09:36:30.271Z,76.58
2022-11-29T09:38:58.963Z,76.53
2022-11-29T09:41:58.531Z,76.89
2022-11-29T09:45:01.825Z,76.85
2022-11-29T09:48:15.201Z,75.86
2022-11-29T09:50:58.235Z,78.27
2022-11-29T09:54:22.852Z,78.11
2022-11-29T09:56:55.420Z,77.47
2022-11-29T09:59:37.307Z,76.68
2022-11-29T10:02:45.262Z,76.24
2022-11-29T10:05:21.201Z,79.54
2022-11-29T10:07:57.460Z,78.88
2022-11-29T10:10:41.664Z,77.47
2022-11-29T10:13:29.788Z,77.74
2022-11-29T10:16:06.241Z,77.49
2022-11-29T10:18:50.504Z,76.78
2022-11-29T10:21:35.401Z,74.69
2022-11-29T10:24:14.640Z,76.56
2022-11-29T10:26:43.461Z,76.67
2022-11-29T10:29:16.181Z,78.50
2022-11-29T10:31:49.459Z,77.19
2022-11-29T10:34:21.055Z,76.45
2022-11-29T10:37:02.355Z,76.95
2022-11-29T10:39:53.879Z,76.79
2022-11-29T10:42:43.911Z,77.29
2022-11-29T10:45:27.297Z,76.68
2022-11-29T10:48:02.173Z,76.38
2022-11-29T10:50:52.800Z,76.21
2022-11-29T10:53:32.602Z,76.11
2022-11-29T10:56:01.910Z,75.48
2022-11-29T10:58:31.071Z,74.86
2022-11-29T11:01:06.557Z,75.33
2022-11-29T11:03:55.751Z,73.85
2022-11-29T11:06:46.427Z,73.72
2022-11-29T11:09:48.769Z,73.45
2022-11-29T11:12:15.941Z,73.32
2022-11-29T11:14:45.014Z,73.50
2022-11-29T11:17:26.611Z,75.86
2022-11-29T11:20:06.135Z,73.53
2022-11-29T11:22:34.187Z,74.02
2022-11-29T11:25:25.226Z,76.17
2022-11-29T11:27:52.426Z,75.72
2022-11-29T11:30:27.370Z,76.24
2022-11-29T11:33:30.093Z,74.32
2022-11-29T11:36:21.121Z,75.74
2022-11-29T11:38:59.522Z,75.44
2022-11-29T11:41:53.991Z,74.81
2022-11-29T11:47:22.477Z,74.93
2022-11-29T11:50:04.397Z,74.59
2022-11-29T11:52:53.275Z,75.15
2022-11-29T11:55:33.311Z,76.41
2022-11-29T11:58:11.846Z,75.25
2022-11-29T12:01:05.872Z,74.01
2022-11-29T12:03:45.562Z,74.84
2022-11-29T12:06:48.027Z,74.85
2022-11-29T12:09:41.343Z,75.57
2022-11-29T12:12:16.121Z,74.87
2022-11-29T12:15:03.439Z,75.87
2022-11-29T12:17:44.419Z,76.20
2022-11-29T12:21:00.471Z,74.88
2022-11-29T12:23:53.142Z,75.09
2022-11-29T12:26:56.600Z,73.39
2022-11-29T12:29:22.497Z,72.47
2022-11-29T12:32:19.594Z,72.47
2022-11-29T12:35:02.171Z,72.81
2022-11-29T12:38:17.141Z,73.67
2022-11-29T12:41:19.172Z,73.88
2022-11-29T12:44:18.399Z,74.39
2022-11-29T12:47:13.228Z,74.34
2022-11-29T12:50:21.487Z,74.63
2022-11-29T12:53:10.968Z,74.27
2022-11-29T12:56:18.902Z,72.56
2022-11-29T12:59:22.707Z,74.28
2022-11-29T13:02:24.724Z,73.82
2022-11-29T13:05:15.198Z,74.17
2022-11-29T13:08:15.320Z,75.50
2022-11-29T13:11:13.201Z,77.18
2022-11-29T13:13:52.305Z,76.66
2022-11-29T13:17:06.125Z,77.14
2022-11-29T13:19:56.003Z,77.57
2022-11-29T13:22:33.022Z,75.76
2022-11-29T13:25:24.268Z,75.15
2022-11-29T13:28:29.328Z,76.21
2022-11-29T13:31:12.264Z,76.38
2022-11-29T13:33:52.854Z,76.94
2022-11-29T13:36:54.620Z,75.84
2022-11-29T13:39:52.796Z,76.07
2022-11-29T13:42:55.481Z,76.53
2022-11-29T13:45:36.615Z,76.64
2022-11-29T13:48:31.843Z,78.24
2022-11-29T13:51:19.392Z,79.19
2022-11-29T13:53:49.142Z,79.49
2022-11-29T13:56:42.788Z,79.24
2022-11-29T13:59:22.682Z,79.67
2022-11-29T14:01:53.988Z,79.10
2022-11-29T14:04:25.779Z,80.90
2022-11-29T14:07:05.044Z,82.61
2022-11-29T14:10:01.287Z,81.78
2022-11-29T14:12:49.168Z,82.59
2022-11-29T14:15:32.087Z,80.50
2022-11-29T14:18:08.573Z,81.19
2022-11-29T14:20:45.700Z,80.98
2022-11-29T14:23:12.599Z,80.24
2022-11-29T14:26:02.921Z,79.62
2022-11-29T14:28:40.856Z,79.92
2022-11-29T14:31:11.114Z,79.29
2022-11-29T14:33:50.365Z,78.39
2022-11-29T14:36:50.505Z,80.32
2022-11-29T14:39:48.005Z,81.20
2022-11-29T14:42:24.748Z,80.60
2022-11-29T14:45:00.701Z,79.71
2022-11-29T14:47:39.040Z,80.62
2022-11-29T14:50:09.851Z,81.47
2022-11-29T14:52:51.188Z,81.46
2022-11-29T14:55:18.275Z,81.38
2022-11-29T14:57:47.956Z,82.34
2022-11-29T15:00:23.619Z,81.47
2022-11-29T15:03:13.973Z,81.00
2022-11-29T15:05:53.862Z,81.67
2022-11-29T15:08:29.683Z,81.67
2022-11-29T15:11:10.964Z,82.39
2022-11-29T15:14:09.431Z,81.32
2022-11-29T15:16:49.965Z,81.02
2022-11-29T15:20:06.880Z,82.37
2022-11-29T15:25:32.208Z,81.36
2022-11-29T15:28:05.881Z,81.42
2022-11-29T15:30:41.664Z,81.27
2022-11-29T15:33:24.198Z,81.43
2022-11-29T15:36:20.235Z,81.73
2022-11-29T15:38:55.965Z,81.21
2022-11-29T15:41:29.954Z,81.17
2022-11-29T15:44:00.653Z,83.16
2022-11-29T15:46:30.951Z,82.53
2022-11-29T15:49:17.964Z,81.68
2022-11-29T15:51:50.399Z,81.18
2022-11-29T15:54:42.368Z,81.95
2022-11-29T15:57:31.615Z,82.65
2022-11-29T16:00:06.749Z,80.78
2022-11-29T16:02:46.415Z,82.16
2022-11-29T16:05:25.243Z,81.95
2022-11-29T16:07:58.408Z,82.33
2022-11-29T16:10:40.972Z,82.21
2022-11-29T16:13:40.607Z,82.44
2022-11-29T16:16:20.951Z,81.58
2022-11-29T16:18:50.457Z,80.94
2022-11-29T16:21:30.702Z,81.65
2022-11-29T16:23:59.048Z,81.47
2022-11-29T16:26:34.631Z,82.02
2022-11-29T16:29:02.000Z,80.43
2022-11-29T16:31:37.913Z,82.30
2022-11-29T16:34:33.820Z,81.96
2022-11-29T16:37:14.377Z,81.44
2022-11-29T16:39:48.044Z,80.89
2022-11-29T16:42:26.165Z,80.83
2022-11-29T16:45:02.477Z,80.93
2022-11-29T16:47:59.592Z,79.88
2022-11-29T16:50:31.935Z,80.27
2022-11-29T16:53:36.970Z,78.98
2022-11-29T16:56:05.865Z,79.66
2022-11-29T16:58:38.756Z,78.33
2022-11-29T17:01:18.146Z,79.53
2022-11-29T17:03:45.805Z,79.14
2022-11-29T17:06:21.132Z,79.39
2022-11-29T17:08:48.762Z,80.46
2022-11-29T17:11:15.914Z,80.81
2022-11-29T17:13:43.131Z,79.14
2022-11-29T17:16:15.891Z,80.80
2022-11-29T17:18:43.444Z,79.84
2022-11-29T17:21:26.475Z,78.52
2022-11-29T17:23:54.294Z,79.16
2022-11-29T17:26:22.491Z,79.86
2022-11-29T17:28:51.549Z,80.66
2022-11-29T17:31:22.485Z,79.22
2022-11-29T17:33:50.032Z,78.97
2022-11-29T17:36:20.799Z,82.31
2022-11-29T17:38:48.830Z,81.35
2022-11-29T17:41:23.027Z,79.78
2022-11-29T17:43:51.577Z,82.56
2022-11-29T17:46:34.933Z,81.88
2022-11-29T17:49:06.014Z,81.24
2022-11-29T17:54:23.006Z,82.29
2022-11-29T17:56:50.732Z,82.05
2022-11-29T17:59:17.888Z,81.64
2022-11-29T18:01:47.404Z,83.39
2022-11-29T18:04:14.788Z,84.01
2022-11-29T18:06:42.125Z,82.67
2022-11-29T18:09:11.205Z,81.93
2022-11-29T18:11:48.528Z,81.81
2022-11-29T18:14:20.559Z,81.90
2022-11-29T18:16:47.924Z,83.66
2022-11-29T18:19:18.449Z,81.78
2022-11-29T18:21:45.792Z,81.05
2022-11-29T18:24:13.078Z,81.18
2022-11-29T18:26:40.821Z,81.58
2022-11-29T18:29:08.938Z,81.08
2022-11-29T18:31:39.790Z,80.64
2022-11-29T18:34:11.599Z,81.10
2022-11-29T18:36:45.124Z,80.87
2022-11-29T18:39:18.998Z,81.43
2022-11-29T18:41:49.096Z,82.25
2022-11-29T18:44:19.595Z,82.35
2022-11-29T18:46:48.088Z,81.45
2022-11-29T18:49:17.456Z,81.22
2022-11-29T18:51:46.436Z,81.23
2022-11-29T18:54:15.553Z,81.59
2022-11-29T18:56:43.946Z,82.50
2022-11-29T18:59:16.403Z,82.33
2022-11-29T19:01:45.317Z,81.57
2022-11-29T19:04:19.629Z,81.03
2022-11-29T19:06:47.100Z,81.04
2022-11-29T19:09:21.201Z,80.88
2022-11-29T19:11:49.765Z,80.66
2022-11-29T19:14:17.260Z,80.66
2022-11-29T19:16:47.802Z,81.13
2022-11-29T19:19:15.018Z,82.53
2022-11-29T19:21:42.488Z,81.95
2022-11-29T19:24:14.863Z,82.83
2022-11-29T19:26:45.064Z,82.27
2022-11-29T19:29:13.734Z,81.91
2022-11-29T19:31:40.989Z,80.99
2022-11-29T19:34:08.104Z,80.36
2022-11-29T19:36:37.266Z,80.64
2022-11-29T19:39:04.929Z,79.85
2022-11-29T19:41:34.398Z,80.09
2022-11-29T19:44:08.582Z,80.15
2022-11-29T19:46:44.165Z,81.27
2022-11-29T19:49:32.642Z,80.42
2022-11-29T19:51:59.576Z,80.53
2022-11-29T19:54:26.718Z,80.12
2022-11-29T19:56:55.665Z,80.21
2022-11-29T19:59:22.888Z,81.85
2022-11-29T20:01:50.010Z,81.40
2022-11-29T20:04:17.582Z,81.51
2022-11-29T20:06:45.645Z,80.48
2022-11-29T20:09:13.875Z,81.60
2022-11-29T20:11:40.945Z,81.41
2022-11-29T20:14:10.213Z,81.54
2022-11-29T20:16:40.330Z,81.01
2022-11-29T20:19:14.609Z,82.27
2022-11-29T20:21:45.987Z,82.29
2022-11-29T20:24:14.525Z,82.16
2022-11-29T20:26:45.743Z,81.48
2022-11-29T20:29:13.946Z,80.62
2022-11-29T20:31:49.082Z,82.57
2022-11-29T20:34:17.270Z,82.25
2022-11-29T20:37:15.031Z,81.21
2022-11-29T20:40:01.764Z,80.84
2022-11-29T20:42:28.799Z,81.32
2022-11-29T20:45:01.948Z,82.13
2022-11-29T20:47:47.285Z,82.74
2022-11-29T20:50:27.251Z,82.33
2022-11-29T20:53:36.211Z,81.38
2022-11-29T20:56:05.364Z,81.56
2022-11-29T20:58:34.229Z,80.15
2022-11-29T21:01:01.948Z,81.88
2022-11-29T21:03:29.717Z,84.08
2022-11-29T21:06:01.025Z,83.13
2022-11-29T21:08:28.218Z,83.05
2022-11-29T21:11:00.725Z,82.12
2022-11-29T21:13:28.124Z,82.00
2022-11-29T21:15:55.755Z,80.70
2022-11-29T21:18:28.281Z,81.35
2022-11-29T21:21:16.360Z,81.49
2022-11-29T21:24:14.164Z,81.25
2022-11-29T21:26:50.853Z,83.49
2022-11-29T21:29:23.043Z,83.67
2022-11-29T21:31:54.255Z,81.92
2022-11-29T21:34:22.152Z,80.41
2022-11-29T21:36:58.512Z,80.93
2022-11-29T21:39:35.118Z,80.91
2022-11-29T21:42:02.890Z,82.57
2022-11-29T21:44:30.062Z,82.77
2022-11-29T21:46:57.056Z,83.30
2022-11-29T21:49:24.083Z,82.28
2022-11-29T21:51:51.057Z,81.80
2022-11-29T21:54:20.656Z,82.23
2022-11-29T21:56:47.731Z,81.43
2022-11-29T21:59:14.640Z,82.22
2022-11-29T22:01:41.667Z,81.17
2022-11-29T22:04:09.138Z,81.75
2022-11-29T22:06:37.004Z,82.83
2022-11-29T22:09:05.022Z,83.50
2022-11-29T22:11:33.931Z,82.46
2022-11-29T22:14:17.044Z,82.94
2022-11-29T22:16:57.473Z,83.30
2022-11-29T22:19:25.221Z,81.72
2022-11-29T22:21:55.658Z,84.20
2022-11-29T22:24:26.253Z,83.95
2022-11-29T22:26:54.609Z,83.76
2022-11-29T22:29:23.451Z,82.68
2022-11-29T22:31:53.184Z,83.11
2022-11-29T22:34:21.071Z,82.83
2022-11-29T22:36:48.013Z,82.83
2022-11-29T22:39:15.341Z,83.48
2022-11-29T22:41:42.677Z,83.97
2022-11-29T22:44:09.649Z,82.81
2022-11-29T22:46:41.114Z,82.95
2022-11-29T22:49:08.166Z,82.84
2022-11-29T22:51:37.883Z,83.00
2022-11-29T22:54:08.914Z,83.57
2022-11-29T22:56:40.209Z,82.59
2022-11-29T22:59:08.301Z,81.88
2022-11-29T23:01:38.175Z,82.41
2022-11-29T23:04:08.232Z,83.40
2022-11-29T23:06:44.202Z,82.93
2022-11-29T23:09:22.482Z,83.35
2022-11-29T23:11:54.387Z,82.57
2022-11-29T23:14:22.490Z,82.30
2022-11-29T23:16:49.702Z,82.93
2022-11-29T23:19:17.342Z,83.50
2022-11-29T23:21:45.554Z,82.32
2022-11-29T23:24:14.336Z,82.00
2022-11-29T23:26:45.656Z,82.98
2022-11-29T23:29:16.608Z,81.79
2022-11-29T23:31:44.257Z,81.81
2022-11-29T23:34:11.705Z,81.15
2022-11-29T23:36:38.797Z,80.72
2022-11-29T23:39:06.919Z,80.44
2022-11-29T23:41:36.282Z,79.19
2022-11-29T23:44:05.161Z,80.22
2022-11-29T23:46:32.776Z,79.80
2022-11-29T23:48:59.890Z,80.23
2022-11-29T23:51:27.228Z,80.71
2022-11-29T23:53:55.147Z,80.31
2022-11-29T23:56:23.049Z,81.22
2022-11-29T23:58:50.365Z,81.44
